createdAt,value
2019-04-16T00:00:12.804Z,13.50
2019-04-16T00:01:14.012Z,13.10
2019-04-16T00:02:12.779Z,14.30
2019-04-16T00:03:12.786Z,17.10
2019-04-16T00:04:12.759Z,13.00
2019-04-16T00:05:12.761Z,11.80
2019-04-16T00:06:12.738Z,13.90
2019-04-16T00:07:12.726Z,13.70
2019-04-16T00:08:26.451Z,13.80
2019-04-16T00:09:13.711Z,15.90
2019-04-16T00:10:12.713Z,13.80
2019-04-16T00:11:12.688Z,12.90
2019-04-16T00:12:12.672Z,15.20
2019-04-16T00:13:12.666Z,15.00
2019-04-16T00:14:12.664Z,13.50
2019-04-16T00:15:12.656Z,14.70
2019-04-16T00:16:13.649Z,14.70
2019-04-16T00:17:13.210Z,13.40
2019-04-16T00:18:12.614Z,12.30
2019-04-16T00:19:12.600Z,18.10
2019-04-16T00:20:12.608Z,17.80
2019-04-16T00:21:12.581Z,16.40
2019-04-16T00:22:12.610Z,15.20
2019-04-16T00:23:12.553Z,14.60
2019-04-16T00:24:12.545Z,15.60
2019-04-16T00:25:12.550Z,16.20
2019-04-16T00:26:12.530Z,14.00
2019-04-16T00:27:12.511Z,15.60
2019-04-16T00:28:12.498Z,16.40
2019-04-16T00:29:12.493Z,13.50
2019-04-16T00:30:12.486Z,14.00
2019-04-16T00:31:12.476Z,15.20
2019-04-16T00:32:12.465Z,14.50
2019-04-16T00:33:12.452Z,14.50
2019-04-16T00:34:14.241Z,13.30
2019-04-16T00:35:15.434Z,14.10
2019-04-16T00:36:12.420Z,15.70
2019-04-16T00:37:12.409Z,13.60
2019-04-16T00:38:12.401Z,14.60
2019-04-16T00:39:12.386Z,14.60
2019-04-16T00:40:12.408Z,14.40
2019-04-16T00:41:12.358Z,15.00
2019-04-16T00:42:12.346Z,13.70
2019-04-16T00:43:12.346Z,14.90
2019-04-16T00:44:12.330Z,13.10
2019-04-16T00:45:12.321Z,15.20
2019-04-16T00:46:12.327Z,13.90
2019-04-16T00:47:12.296Z,13.20
2019-04-16T00:48:12.282Z,18.10
2019-04-16T00:49:12.280Z,15.00
2019-04-16T00:50:12.261Z,14.10
2019-04-16T00:51:12.260Z,15.10
2019-04-16T00:52:12.240Z,16.50
2019-04-16T00:53:12.247Z,17.30
2019-04-16T00:54:12.217Z,13.00
2019-04-16T00:55:14.614Z,14.70
2019-04-16T00:56:13.446Z,16.50
2019-04-16T00:57:12.184Z,13.80
2019-04-16T00:58:12.184Z,18.30
2019-04-16T00:59:12.166Z,16.00
2019-04-16T01:00:12.155Z,16.20
2019-04-16T01:01:12.142Z,15.80
2019-04-16T01:02:12.133Z,14.10
2019-04-16T01:03:12.188Z,14.20
2019-04-16T01:04:12.117Z,16.30
2019-04-16T01:05:12.104Z,15.00
2019-04-16T01:06:12.088Z,13.90
2019-04-16T01:07:12.076Z,18.60
2019-04-16T01:08:12.071Z,13.70
2019-04-16T01:09:12.074Z,12.30
2019-04-16T01:10:12.047Z,13.50
2019-04-16T01:11:12.038Z,13.80
2019-04-16T01:12:12.040Z,13.00
2019-04-16T01:13:12.017Z,19.00
2019-04-16T01:14:12.014Z,13.10
2019-04-16T01:15:12.012Z,13.00
2019-04-16T01:16:11.981Z,14.00
2019-04-16T01:17:11.975Z,12.40
2019-04-16T01:18:11.972Z,14.10
2019-04-16T01:19:11.962Z,12.40
2019-04-16T01:20:13.100Z,14.70
2019-04-16T01:21:14.285Z,16.30
2019-04-16T01:22:15.707Z,14.10
2019-04-16T01:23:11.911Z,12.60
2019-04-16T01:24:11.898Z,14.90
2019-04-16T01:25:11.894Z,16.30
2019-04-16T01:26:11.885Z,16.40
2019-04-16T01:27:11.866Z,15.50
2019-04-16T01:28:11.864Z,12.10
2019-04-16T01:29:11.840Z,13.50
2019-04-16T01:30:11.840Z,14.20
2019-04-16T01:31:11.830Z,15.20
2019-04-16T01:32:12.131Z,14.00
2019-04-16T01:33:14.419Z,15.80
2019-04-16T01:34:11.795Z,20.20
2019-04-16T01:35:11.779Z,13.80
2019-04-16T01:36:11.779Z,14.60
2019-04-16T01:37:11.759Z,16.80
2019-04-16T01:38:11.747Z,14.20
2019-04-16T01:39:17.939Z,14.20
2019-04-16T01:40:12.726Z,13.50
2019-04-16T01:41:11.717Z,14.30
2019-04-16T01:42:11.703Z,14.70
2019-04-16T01:43:11.690Z,13.20
2019-04-16T01:44:11.696Z,15.10
2019-04-16T01:45:11.669Z,14.80
2019-04-16T01:46:11.661Z,19.30
2019-04-16T01:47:11.645Z,15.20
2019-04-16T01:48:11.642Z,17.40
2019-04-16T01:49:11.648Z,16.20
2019-04-16T01:50:13.867Z,14.40
2019-04-16T01:51:14.987Z,16.20
2019-04-16T01:52:11.601Z,15.20
2019-04-16T01:53:11.585Z,16.80
2019-04-16T01:54:11.586Z,13.70
2019-04-16T01:55:11.575Z,18.90
2019-04-16T01:56:11.553Z,14.40
2019-04-16T01:57:11.542Z,16.50
2019-04-16T01:58:11.534Z,15.80
2019-04-16T01:59:11.521Z,18.40
2019-04-16T02:00:11.527Z,18.60
2019-04-16T02:01:12.374Z,14.40
2019-04-16T02:02:14.635Z,16.60
2019-04-16T02:03:11.471Z,14.30
2019-04-16T02:04:11.516Z,15.90
2019-04-16T02:05:11.699Z,18.00
2019-04-16T02:06:11.632Z,17.10
2019-04-16T02:07:11.435Z,15.00
2019-04-16T02:08:11.423Z,19.40
2019-04-16T02:09:21.729Z,16.30
2019-04-16T02:10:12.408Z,20.80
2019-04-16T02:11:11.485Z,20.90
2019-04-16T02:12:13.258Z,17.10
2019-04-16T02:13:14.579Z,18.70
2019-04-16T02:14:11.360Z,20.80
2019-04-16T02:15:11.356Z,17.80
2019-04-16T02:16:11.330Z,19.60
2019-04-16T02:17:11.325Z,18.20
2019-04-16T02:18:11.313Z,19.70
2019-04-16T02:19:11.298Z,20.90
2019-04-16T02:20:11.300Z,19.40
2019-04-16T02:21:11.399Z,17.60
2019-04-16T02:22:13.880Z,20.20
2019-04-16T02:23:13.752Z,15.30
2019-04-16T02:24:12.245Z,18.40
2019-04-16T02:25:11.233Z,18.10
2019-04-16T02:26:11.225Z,21.10
2019-04-16T02:27:11.226Z,21.90
2019-04-16T02:28:11.209Z,16.70
2019-04-16T02:29:11.190Z,18.50
2019-04-16T02:30:11.190Z,18.00
2019-04-16T02:31:15.378Z,20.90
2019-04-16T02:32:12.173Z,24.30
2019-04-16T02:33:11.170Z,18.70
2019-04-16T02:34:11.142Z,18.60
2019-04-16T02:35:11.138Z,19.90
2019-04-16T02:36:11.126Z,20.80
2019-04-16T02:37:11.108Z,19.00
2019-04-16T02:38:13.191Z,18.90
2019-04-16T02:39:11.082Z,20.30
2019-04-16T02:40:16.941Z,22.70
2019-04-16T02:41:12.093Z,24.20
2019-04-16T02:42:11.059Z,17.50
2019-04-16T02:43:11.120Z,18.40
2019-04-16T02:44:16.272Z,21.70
2019-04-16T02:45:12.394Z,22.90
2019-04-16T02:46:11.314Z,20.40
2019-04-16T02:47:11.324Z,20.60
2019-04-16T02:48:15.495Z,19.30
2019-04-16T02:49:11.979Z,18.80
2019-04-16T02:50:10.961Z,18.90
2019-04-16T02:51:10.965Z,20.10
2019-04-16T02:52:16.545Z,22.10
2019-04-16T02:53:11.943Z,19.00
2019-04-16T02:54:10.917Z,17.50
2019-04-16T02:55:11.394Z,20.90
2019-04-16T02:56:17.233Z,22.30
2019-04-16T02:57:11.887Z,18.40
2019-04-16T02:58:10.888Z,20.90
2019-04-16T02:59:13.357Z,22.70
2019-04-16T03:00:10.866Z,23.40
2019-04-16T03:01:10.846Z,21.50
2019-04-16T03:02:10.830Z,19.40
2019-04-16T03:03:10.822Z,19.30
2019-04-16T03:04:10.819Z,21.60
2019-04-16T03:05:10.805Z,18.80
2019-04-16T03:06:10.795Z,21.20
2019-04-16T03:07:10.782Z,23.40
2019-04-16T03:08:10.805Z,20.00
2019-04-16T03:09:10.757Z,21.10
2019-04-16T03:10:13.267Z,22.00
2019-04-16T03:11:13.760Z,20.50
2019-04-16T03:12:11.729Z,21.00
2019-04-16T03:13:10.753Z,23.20
2019-04-16T03:14:10.718Z,22.60
2019-04-16T03:15:10.697Z,20.90
2019-04-16T03:16:10.715Z,20.80
2019-04-16T03:17:11.789Z,19.20
2019-04-16T03:18:11.750Z,23.50
2019-04-16T03:19:10.675Z,22.90
2019-04-16T03:20:10.643Z,19.70
2019-04-16T03:21:10.625Z,22.60
2019-04-16T03:22:10.974Z,25.30
2019-04-16T03:23:10.609Z,21.50
2019-04-16T03:24:10.873Z,20.90
2019-04-16T03:25:13.866Z,21.30
2019-04-16T03:26:10.576Z,21.60
2019-04-16T03:27:10.560Z,20.20
2019-04-16T03:28:10.548Z,24.20
2019-04-16T03:29:10.558Z,22.60
2019-04-16T03:30:10.544Z,20.00
2019-04-16T03:31:19.572Z,24.10
2019-04-16T03:32:14.326Z,23.60
2019-04-16T03:33:13.976Z,23.50
2019-04-16T03:34:10.798Z,20.60
2019-04-16T03:35:10.516Z,21.20
2019-04-16T03:36:10.468Z,23.00
2019-04-16T03:37:10.458Z,23.60
2019-04-16T03:38:10.445Z,22.70
2019-04-16T03:39:13.579Z,21.40
2019-04-16T03:40:17.107Z,22.70
2019-04-16T03:41:11.427Z,22.60
2019-04-16T03:42:10.397Z,25.90
2019-04-16T03:43:10.400Z,22.90
2019-04-16T03:44:10.378Z,22.80
2019-04-16T03:45:10.395Z,24.00
2019-04-16T03:46:13.094Z,23.90
2019-04-16T03:47:10.349Z,22.60
2019-04-16T03:48:10.332Z,24.10
2019-04-16T03:49:10.327Z,23.50
2019-04-16T03:50:10.317Z,23.50
2019-04-16T03:51:10.314Z,22.40
2019-04-16T03:52:10.288Z,21.90
2019-04-16T03:53:10.292Z,24.20
2019-04-16T03:54:10.274Z,25.60
2019-04-16T03:55:10.262Z,24.10
2019-04-16T03:56:10.258Z,22.10
2019-04-16T03:57:10.252Z,22.50
2019-04-16T03:58:10.230Z,22.70
2019-04-16T03:59:11.977Z,23.10
2019-04-16T04:00:12.267Z,23.20
2019-04-16T04:01:10.200Z,22.90
2019-04-16T04:02:10.194Z,22.90
2019-04-16T04:03:10.314Z,23.90
2019-04-16T04:04:10.164Z,23.70
2019-04-16T04:05:10.168Z,23.50
2019-04-16T04:06:10.137Z,23.80
2019-04-16T04:07:12.024Z,21.20
2019-04-16T04:08:10.118Z,22.80
2019-04-16T04:09:10.103Z,23.70
2019-04-16T04:10:10.111Z,22.40
2019-04-16T04:11:10.711Z,26.80
2019-04-16T04:12:12.989Z,23.80
2019-04-16T04:13:10.084Z,22.60
2019-04-16T04:14:10.056Z,22.10
2019-04-16T04:15:10.043Z,24.50
2019-04-16T04:16:10.042Z,21.40
2019-04-16T04:17:10.030Z,21.80
2019-04-16T04:18:11.590Z,24.50
2019-04-16T04:19:14.104Z,23.30
2019-04-16T04:20:10.986Z,25.10
2019-04-16T04:21:09.977Z,23.20
2019-04-16T04:22:09.969Z,26.30
2019-04-16T04:23:09.960Z,26.20
2019-04-16T04:24:09.939Z,30.40
2019-04-16T04:25:09.933Z,24.50
2019-04-16T04:26:10.223Z,25.30
2019-04-16T04:27:12.834Z,21.20
2019-04-16T04:28:09.910Z,22.70
2019-04-16T04:29:09.888Z,22.60
2019-04-16T04:30:09.877Z,25.10
2019-04-16T04:31:09.866Z,21.90
2019-04-16T04:32:09.858Z,22.20
2019-04-16T04:33:10.408Z,25.10
2019-04-16T04:34:10.856Z,21.50
2019-04-16T04:35:09.819Z,25.20
2019-04-16T04:36:09.814Z,25.10
2019-04-16T04:37:09.794Z,26.50
2019-04-16T04:38:09.792Z,22.50
2019-04-16T04:39:14.702Z,25.00
2019-04-16T04:40:12.980Z,22.50
2019-04-16T04:41:10.753Z,22.00
2019-04-16T04:42:09.744Z,22.70
2019-04-16T04:43:10.063Z,24.70
2019-04-16T04:44:09.856Z,20.70
2019-04-16T04:45:10.218Z,24.70
2019-04-16T04:46:14.802Z,25.10
2019-04-16T04:47:10.688Z,26.10
2019-04-16T04:48:11.833Z,22.80
2019-04-16T04:49:09.681Z,23.00
2019-04-16T04:50:09.656Z,21.90
2019-04-16T04:51:09.647Z,21.40
2019-04-16T04:52:13.646Z,21.70
2019-04-16T04:53:10.625Z,82.40
2019-04-16T04:54:09.624Z,24.40
2019-04-16T04:55:09.618Z,23.10
2019-04-16T04:56:09.672Z,25.00
2019-04-16T04:57:09.583Z,30.10
2019-04-16T04:58:09.571Z,20.70
2019-04-16T04:59:09.566Z,24.50
2019-04-16T05:00:09.828Z,22.60
2019-04-16T05:01:12.608Z,24.70
2019-04-16T05:02:10.602Z,21.40
2019-04-16T05:03:09.513Z,20.70
2019-04-16T05:04:09.505Z,23.00
2019-04-16T05:05:09.505Z,22.50
2019-04-16T05:06:09.482Z,20.80
2019-04-16T05:07:09.478Z,23.80
2019-04-16T05:08:09.468Z,23.60
2019-04-16T05:09:09.450Z,21.40
2019-04-16T05:10:09.435Z,24.20
2019-04-16T05:11:09.425Z,23.60
2019-04-16T05:12:09.419Z,22.20
2019-04-16T05:13:09.414Z,23.50
2019-04-16T05:14:09.399Z,23.80
2019-04-16T05:15:09.421Z,21.30
2019-04-16T05:16:09.380Z,22.90
2019-04-16T05:17:09.412Z,22.50
2019-04-16T05:18:10.816Z,19.80
2019-04-16T05:19:13.783Z,19.80
2019-04-16T05:20:14.917Z,21.00
2019-04-16T05:21:10.317Z,19.90
2019-04-16T05:22:09.309Z,19.70
2019-04-16T05:23:09.293Z,22.80
2019-04-16T05:24:09.290Z,21.60
2019-04-16T05:25:09.273Z,19.90
2019-04-16T05:26:09.930Z,24.10
2019-04-16T05:27:09.466Z,22.60
2019-04-16T05:28:11.770Z,20.90
2019-04-16T05:29:09.230Z,21.50
2019-04-16T05:30:09.221Z,21.90
2019-04-16T05:31:09.217Z,23.00
2019-04-16T05:32:09.203Z,21.80
2019-04-16T05:33:09.191Z,21.70
2019-04-16T05:34:09.177Z,20.40
2019-04-16T05:35:10.369Z,23.00
2019-04-16T05:36:11.065Z,17.80
2019-04-16T05:37:09.154Z,20.20
2019-04-16T05:38:09.142Z,19.50
2019-04-16T05:39:09.126Z,21.30
2019-04-16T05:40:09.117Z,21.90
2019-04-16T05:41:13.475Z,21.30
2019-04-16T05:42:10.089Z,20.50
2019-04-16T05:43:09.093Z,19.70
2019-04-16T05:44:09.073Z,21.40
2019-04-16T05:45:09.064Z,20.40
2019-04-16T05:46:09.862Z,21.10
2019-04-16T05:47:09.037Z,20.60
2019-04-16T05:48:09.025Z,24.30
2019-04-16T05:49:09.059Z,21.10
2019-04-16T05:50:09.012Z,25.80
2019-04-16T05:51:08.992Z,21.00
2019-04-16T05:52:08.992Z,19.60
2019-04-16T05:53:09.324Z,23.30
2019-04-16T05:54:12.320Z,21.30
2019-04-16T05:55:08.954Z,20.80
2019-04-16T05:56:08.935Z,21.80
2019-04-16T05:57:08.930Z,21.20
2019-04-16T05:58:08.973Z,21.20
2019-04-16T05:59:08.905Z,21.60
2019-04-16T06:00:10.225Z,21.50
2019-04-16T06:01:10.420Z,22.40
2019-04-16T06:02:08.874Z,21.80
2019-04-16T06:03:08.901Z,18.90
2019-04-16T06:04:08.853Z,20.20
2019-04-16T06:05:08.835Z,19.90
2019-04-16T06:06:08.835Z,22.30
2019-04-16T06:07:08.815Z,20.50
2019-04-16T06:08:09.197Z,19.90
2019-04-16T06:09:11.852Z,21.10
2019-04-16T06:10:08.793Z,21.20
2019-04-16T06:11:08.796Z,21.70
2019-04-16T06:12:09.525Z,20.60
2019-04-16T06:13:09.380Z,19.10
2019-04-16T06:14:08.741Z,19.50
2019-04-16T06:15:08.725Z,20.00
2019-04-16T06:16:08.727Z,20.30
2019-04-16T06:17:08.719Z,20.30
2019-04-16T06:18:08.697Z,18.80
2019-04-16T06:19:11.547Z,20.10
2019-04-16T06:20:08.679Z,21.10
2019-04-16T06:21:08.702Z,19.90
2019-04-16T06:22:08.679Z,18.60
2019-04-16T06:23:08.639Z,19.50
2019-04-16T06:24:08.633Z,21.70
2019-04-16T06:25:10.761Z,21.70
2019-04-16T06:26:14.790Z,18.20
2019-04-16T06:27:09.612Z,21.00
2019-04-16T06:28:08.594Z,18.40
2019-04-16T06:29:08.576Z,20.10
2019-04-16T06:30:08.584Z,20.10
2019-04-16T06:31:10.299Z,18.90
2019-04-16T06:32:11.804Z,18.20
2019-04-16T06:33:08.534Z,20.70
2019-04-16T06:34:08.524Z,20.40
2019-04-16T06:35:08.512Z,18.30
2019-04-16T06:36:08.506Z,21.80
2019-04-16T06:37:08.485Z,20.30
2019-04-16T06:38:08.484Z,18.10
2019-04-16T06:39:08.461Z,17.60
2019-04-16T06:40:08.459Z,19.70
2019-04-16T06:41:08.444Z,19.60
2019-04-16T06:42:08.429Z,20.20
2019-04-16T06:43:08.431Z,19.80
2019-04-16T06:44:08.446Z,21.30
2019-04-16T06:45:08.395Z,19.90
2019-04-16T06:46:09.447Z,18.00
2019-04-16T06:47:11.005Z,18.80
2019-04-16T06:48:12.769Z,20.90
2019-04-16T06:49:09.371Z,18.40
2019-04-16T06:50:08.343Z,20.20
2019-04-16T06:51:11.725Z,18.60
2019-04-16T06:52:08.323Z,19.10
2019-04-16T06:53:08.325Z,20.40
2019-04-16T06:54:08.326Z,19.60
2019-04-16T06:55:08.286Z,20.60
2019-04-16T06:56:08.574Z,18.10
2019-04-16T06:57:09.681Z,20.40
2019-04-16T06:58:08.257Z,20.00
2019-04-16T06:59:08.249Z,17.90
2019-04-16T07:00:08.241Z,20.10
2019-04-16T07:01:08.228Z,22.30
2019-04-16T07:02:10.511Z,18.70
2019-04-16T07:03:08.204Z,18.30
2019-04-16T07:04:08.188Z,19.80
2019-04-16T07:05:08.184Z,18.60
2019-04-16T07:06:08.189Z,19.50
2019-04-16T07:07:09.372Z,18.10
2019-04-16T07:08:08.148Z,19.70
2019-04-16T07:09:08.133Z,19.90
2019-04-16T07:10:08.123Z,22.00
2019-04-16T07:11:08.112Z,18.30
2019-04-16T07:12:08.125Z,17.80
2019-04-16T07:13:11.246Z,17.00
2019-04-16T07:14:08.083Z,18.10
2019-04-16T07:15:08.088Z,16.80
2019-04-16T07:16:08.055Z,18.00
2019-04-16T07:17:08.058Z,18.60
2019-04-16T07:18:08.035Z,17.20
2019-04-16T07:19:11.170Z,16.80
2019-04-16T07:20:13.019Z,19.00
2019-04-16T07:21:09.002Z,18.70
2019-04-16T07:22:08.005Z,20.00
2019-04-16T07:23:07.980Z,16.80
2019-04-16T07:24:08.088Z,16.20
2019-04-16T07:25:08.073Z,19.30
2019-04-16T07:26:13.510Z,16.50
2019-04-16T07:27:08.981Z,17.00
2019-04-16T07:28:07.927Z,15.70
2019-04-16T07:29:07.939Z,16.80
2019-04-16T07:30:09.089Z,17.80
2019-04-16T07:31:13.437Z,16.60
2019-04-16T07:32:08.966Z,18.20
2019-04-16T07:33:07.872Z,18.20
2019-04-16T07:34:07.871Z,16.00
2019-04-16T07:35:07.847Z,21.50
2019-04-16T07:36:07.848Z,22.30
2019-04-16T07:37:07.832Z,19.00
2019-04-16T07:38:07.818Z,18.90
2019-04-16T07:39:07.801Z,16.30
2019-04-16T07:40:10.020Z,15.30
2019-04-16T07:41:11.013Z,19.30
2019-04-16T07:42:11.167Z,16.10
2019-04-16T07:43:08.762Z,14.60
2019-04-16T07:44:10.839Z,16.90
2019-04-16T07:45:11.375Z,16.70
2019-04-16T07:46:08.736Z,18.10
2019-04-16T07:47:07.724Z,18.40
2019-04-16T07:48:07.724Z,16.90
2019-04-16T07:49:07.699Z,18.40
2019-04-16T07:50:07.697Z,16.20
2019-04-16T07:51:07.677Z,19.00
2019-04-16T07:52:11.717Z,19.60
2019-04-16T07:53:07.663Z,16.80
2019-04-16T07:54:07.643Z,14.90
2019-04-16T07:55:07.645Z,18.10
2019-04-16T07:56:07.620Z,15.60
2019-04-16T07:57:07.610Z,19.60
2019-04-16T07:58:07.593Z,15.90
2019-04-16T07:59:07.603Z,16.10
2019-04-16T08:00:09.270Z,15.90
2019-04-16T08:01:11.132Z,17.60
2019-04-16T08:02:08.561Z,16.90
2019-04-16T08:03:07.539Z,16.40
2019-04-16T08:04:07.718Z,17.90
2019-04-16T08:05:09.185Z,17.10
2019-04-16T08:06:07.523Z,15.90
2019-04-16T08:07:07.501Z,18.10
2019-04-16T08:08:07.485Z,14.70
2019-04-16T08:09:07.473Z,15.00
2019-04-16T08:10:07.466Z,17.70
2019-04-16T08:11:07.450Z,16.40
2019-04-16T08:12:10.896Z,15.20
2019-04-16T08:13:08.436Z,15.00
2019-04-16T08:14:09.836Z,15.30
2019-04-16T08:15:14.240Z,17.90
2019-04-16T08:16:08.397Z,15.60
2019-04-16T08:17:07.401Z,14.40
2019-04-16T08:18:07.375Z,13.40
2019-04-16T08:19:07.366Z,15.20
2019-04-16T08:20:07.357Z,18.40
2019-04-16T08:21:12.059Z,15.00
2019-04-16T08:22:08.368Z,16.30
2019-04-16T08:23:07.318Z,18.40
2019-04-16T08:24:07.313Z,13.80
2019-04-16T08:25:07.305Z,14.40
2019-04-16T08:26:11.477Z,15.70
2019-04-16T08:27:10.652Z,17.60
2019-04-16T08:28:07.797Z,18.20
2019-04-16T08:29:07.290Z,16.30
2019-04-16T08:30:07.254Z,17.00
2019-04-16T08:31:10.670Z,12.40
2019-04-16T08:32:07.226Z,16.20
2019-04-16T08:33:10.347Z,16.60
2019-04-16T08:34:07.235Z,14.50
2019-04-16T08:35:07.192Z,15.40
2019-04-16T08:36:07.352Z,16.00
2019-04-16T08:37:08.287Z,14.00
2019-04-16T08:38:07.162Z,16.60
2019-04-16T08:39:07.569Z,14.40
2019-04-16T08:40:09.082Z,15.30
2019-04-16T08:41:07.312Z,13.80
2019-04-16T08:42:07.116Z,15.20
2019-04-16T08:43:07.111Z,16.10
2019-04-16T08:44:10.091Z,19.50
2019-04-16T08:45:08.680Z,13.30
2019-04-16T08:46:09.995Z,15.30
2019-04-16T08:47:11.532Z,13.80
2019-04-16T08:48:09.211Z,12.80
2019-04-16T08:49:07.148Z,13.60
2019-04-16T08:50:07.286Z,16.00
2019-04-16T08:51:07.056Z,14.50
2019-04-16T08:52:09.939Z,15.30
2019-04-16T08:53:07.001Z,16.30
2019-04-16T08:54:07.229Z,13.20
2019-04-16T08:55:06.980Z,14.00
2019-04-16T08:56:06.964Z,14.50
2019-04-16T08:57:06.970Z,14.60
2019-04-16T08:58:07.527Z,14.10
2019-04-16T08:59:10.685Z,16.70
2019-04-16T09:00:06.928Z,16.40
2019-04-16T09:01:06.914Z,13.80
2019-04-16T09:02:06.908Z,17.60
2019-04-16T09:03:06.920Z,12.70
2019-04-16T09:04:06.879Z,15.80
2019-04-16T09:05:11.100Z,14.10
2019-04-16T09:06:06.874Z,12.40
2019-04-16T09:07:12.106Z,15.60
2019-04-16T09:08:13.424Z,14.60
2019-04-16T09:09:13.507Z,14.80
2019-04-16T09:10:17.163Z,14.10
2019-04-16T09:11:21.649Z,11.30
2019-04-16T09:12:09.459Z,15.50
2019-04-16T09:13:06.799Z,13.10
2019-04-16T09:14:06.777Z,12.40
2019-04-16T09:15:06.766Z,12.60
2019-04-16T09:16:06.982Z,14.90
2019-04-16T09:17:09.595Z,15.30
2019-04-16T09:18:06.840Z,15.40
2019-04-16T09:19:06.717Z,13.00
2019-04-16T09:20:06.946Z,12.90
2019-04-16T09:21:09.921Z,17.40
2019-04-16T09:22:06.682Z,14.20
2019-04-16T09:23:06.799Z,13.80
2019-04-16T09:24:08.941Z,14.10
2019-04-16T09:25:06.659Z,15.50
2019-04-16T09:26:14.213Z,15.20
2019-04-16T09:27:07.629Z,12.70
2019-04-16T09:28:09.901Z,13.30
2019-04-16T09:29:09.906Z,13.80
2019-04-16T09:30:09.857Z,15.00
2019-04-16T09:31:07.578Z,14.10
2019-04-16T09:32:06.569Z,17.30
2019-04-16T09:33:06.564Z,15.60
2019-04-16T09:34:07.061Z,12.70
2019-04-16T09:35:09.683Z,14.50
2019-04-16T09:36:06.529Z,14.60
2019-04-16T09:37:06.536Z,12.80
2019-04-16T09:38:09.405Z,14.90
2019-04-16T09:39:07.772Z,15.60
2019-04-16T09:40:16.580Z,15.00
2019-04-16T09:41:07.473Z,16.00
2019-04-16T09:42:06.472Z,15.20
2019-04-16T09:43:16.608Z,15.10
2019-04-16T09:44:07.439Z,13.90
2019-04-16T09:45:06.455Z,22.10
2019-04-16T09:46:10.920Z,17.10
2019-04-16T09:47:07.427Z,15.30
2019-04-16T09:48:06.392Z,13.30
2019-04-16T09:49:06.379Z,13.90
2019-04-16T09:50:09.617Z,17.60
2019-04-16T09:51:06.382Z,14.90
2019-04-16T09:52:06.344Z,13.90
2019-04-16T09:53:06.344Z,16.60
2019-04-16T09:54:06.324Z,13.40
2019-04-16T09:55:06.325Z,14.30
2019-04-16T09:56:06.317Z,13.50
2019-04-16T09:57:06.300Z,16.40
2019-04-16T09:58:07.078Z,16.90
2019-04-16T09:59:06.269Z,13.40
2019-04-16T10:00:08.323Z,12.80
2019-04-16T10:01:06.280Z,15.10
2019-04-16T10:02:06.253Z,12.60
2019-04-16T10:03:06.228Z,15.80
2019-04-16T10:04:06.215Z,12.90
2019-04-16T10:05:06.203Z,13.20
2019-04-16T10:06:06.199Z,16.70
2019-04-16T10:07:06.198Z,12.60
2019-04-16T10:08:06.179Z,13.20
2019-04-16T10:09:06.180Z,12.60
2019-04-16T10:10:06.173Z,15.10
2019-04-16T10:11:06.547Z,14.40
2019-04-16T10:12:07.791Z,13.00
2019-04-16T10:13:06.118Z,15.00
2019-04-16T10:14:06.130Z,14.70
2019-04-16T10:15:06.098Z,13.00
2019-04-16T10:16:06.124Z,12.80
2019-04-16T10:17:06.090Z,12.30
2019-04-16T10:18:06.081Z,12.50
2019-04-16T10:19:08.275Z,11.40
2019-04-16T10:20:06.062Z,12.10
2019-04-16T10:21:06.136Z,12.80
2019-04-16T10:22:06.023Z,15.50
2019-04-16T10:23:06.035Z,14.30
2019-04-16T10:24:05.999Z,13.30
2019-04-16T10:25:06.004Z,13.50
2019-04-16T10:26:05.998Z,12.50
2019-04-16T10:27:05.995Z,11.70
2019-04-16T10:28:05.961Z,16.40
2019-04-16T10:29:06.149Z,13.00
2019-04-16T10:30:05.942Z,13.60
2019-04-16T10:31:05.924Z,13.30
2019-04-16T10:32:05.931Z,14.70
2019-04-16T10:33:05.967Z,13.40
2019-04-16T10:34:05.888Z,15.40
2019-04-16T10:35:05.884Z,13.50
2019-04-16T10:36:06.241Z,12.80
2019-04-16T10:37:05.860Z,12.00
2019-04-16T10:38:05.881Z,12.90
2019-04-16T10:39:05.827Z,12.60
2019-04-16T10:40:05.835Z,13.40
2019-04-16T10:41:05.815Z,12.20
2019-04-16T10:42:05.801Z,10.50
2019-04-16T10:43:05.803Z,12.90
2019-04-16T10:44:05.824Z,11.70
2019-04-16T10:45:05.863Z,10.70
2019-04-16T10:46:05.782Z,14.10
2019-04-16T10:47:05.753Z,11.40
2019-04-16T10:48:05.832Z,13.30
2019-04-16T10:49:05.792Z,12.60
2019-04-16T10:50:05.713Z,14.60
2019-04-16T10:51:05.698Z,13.40
2019-04-16T10:52:05.685Z,13.70
2019-04-16T10:53:05.754Z,12.90
2019-04-16T10:54:05.677Z,13.80
2019-04-16T10:55:05.679Z,13.60
2019-04-16T10:56:05.650Z,11.90
2019-04-16T10:57:05.642Z,12.40
2019-04-16T10:58:05.763Z,12.00
2019-04-16T10:59:05.639Z,13.90
2019-04-16T11:00:05.621Z,14.50
2019-04-16T11:01:05.632Z,11.70
2019-04-16T11:02:09.669Z,15.30
2019-04-16T11:03:06.596Z,12.30
2019-04-16T11:04:07.823Z,11.80
2019-04-16T11:05:05.610Z,14.50
2019-04-16T11:06:05.542Z,13.20
2019-04-16T11:07:05.530Z,12.70
2019-04-16T11:08:07.488Z,13.30
2019-04-16T11:09:05.523Z,13.30
2019-04-16T11:10:05.521Z,13.10
2019-04-16T11:11:05.483Z,12.10
2019-04-16T11:12:06.019Z,13.00
2019-04-16T11:13:05.482Z,16.90
2019-04-16T11:14:05.484Z,13.60
2019-04-16T11:15:05.435Z,14.50
2019-04-16T11:16:05.455Z,13.00
2019-04-16T11:17:05.467Z,14.30
2019-04-16T11:18:05.439Z,14.70
2019-04-16T11:19:05.395Z,12.40
2019-04-16T11:20:06.177Z,13.70
2019-04-16T11:21:05.399Z,14.50
2019-04-16T11:22:05.688Z,14.80
2019-04-16T11:23:07.604Z,11.00
2019-04-16T11:24:05.390Z,13.40
2019-04-16T11:25:05.326Z,14.30
2019-04-16T11:26:05.332Z,15.00
2019-04-16T11:27:05.309Z,14.40
2019-04-16T11:28:05.345Z,12.20
2019-04-16T11:29:05.281Z,12.40
2019-04-16T11:30:05.313Z,15.80
2019-04-16T11:31:05.297Z,13.50
2019-04-16T11:32:05.292Z,14.60
2019-04-16T11:33:05.243Z,11.40
2019-04-16T11:34:05.236Z,14.00
2019-04-16T11:35:05.238Z,13.10
2019-04-16T11:36:17.812Z,12.90
2019-04-16T11:37:08.087Z,14.90
2019-04-16T11:38:05.340Z,14.10
2019-04-16T11:39:05.213Z,12.60
2019-04-16T11:40:05.187Z,13.80
2019-04-16T11:41:05.171Z,13.50
2019-04-16T11:42:05.320Z,13.80
2019-04-16T11:43:05.138Z,17.10
2019-04-16T11:44:15.026Z,14.70
2019-04-16T11:45:06.122Z,13.60
2019-04-16T11:46:05.152Z,12.70
2019-04-16T11:47:05.127Z,11.20
2019-04-16T11:48:05.097Z,14.80
2019-04-16T11:49:05.123Z,12.60
2019-04-16T11:50:05.069Z,14.70
2019-04-16T11:51:05.060Z,12.30
2019-04-16T11:52:05.208Z,13.80
2019-04-16T11:53:05.394Z,14.90
2019-04-16T11:54:05.155Z,13.10
2019-04-16T11:55:05.008Z,17.00
2019-04-16T11:56:04.999Z,15.60
2019-04-16T11:57:04.995Z,12.70
2019-04-16T11:58:05.003Z,12.60
2019-04-16T11:59:04.989Z,16.40
2019-04-16T12:00:07.485Z,14.20
2019-04-16T12:01:04.967Z,15.00
2019-04-16T12:02:04.958Z,14.60
2019-04-16T12:03:04.973Z,14.20
2019-04-16T12:04:04.912Z,12.50
2019-04-16T12:05:05.574Z,14.80
2019-04-16T12:06:04.925Z,12.90
2019-04-16T12:07:06.254Z,11.70
2019-04-16T12:08:04.990Z,12.60
2019-04-16T12:09:04.862Z,11.50
2019-04-16T12:10:04.942Z,11.70
2019-04-16T12:11:04.858Z,12.90
2019-04-16T12:12:04.825Z,11.00
2019-04-16T12:13:04.878Z,13.10
2019-04-16T12:14:08.267Z,13.40
2019-04-16T12:15:05.918Z,12.10
2019-04-16T12:16:04.806Z,16.30
2019-04-16T12:17:04.773Z,13.50
2019-04-16T12:18:04.780Z,14.40
2019-04-16T12:19:04.761Z,15.20
2019-04-16T12:20:04.803Z,13.60
2019-04-16T12:21:04.763Z,13.40
2019-04-16T12:22:04.769Z,11.60
2019-04-16T12:23:04.705Z,12.40
2019-04-16T12:24:04.704Z,12.10
2019-04-16T12:25:04.694Z,12.30
2019-04-16T12:26:04.689Z,11.80
2019-04-16T12:27:04.672Z,10.90
2019-04-16T12:28:06.439Z,12.30
2019-04-16T12:29:05.680Z,14.10
2019-04-16T12:30:04.690Z,11.90
2019-04-16T12:31:04.625Z,14.30
2019-04-16T12:32:05.381Z,15.10
2019-04-16T12:33:07.419Z,13.50
2019-04-16T12:34:04.632Z,12.00
2019-04-16T12:35:04.629Z,14.30
2019-04-16T12:36:04.631Z,12.00
2019-04-16T12:37:04.580Z,12.70
2019-04-16T12:38:04.616Z,11.30
2019-04-16T12:39:04.682Z,10.90
2019-04-16T12:40:04.588Z,10.00
2019-04-16T12:41:04.545Z,10.50
2019-04-16T12:42:04.540Z,11.10
2019-04-16T12:43:04.532Z,11.70
2019-04-16T12:44:04.501Z,11.90
2019-04-16T12:45:04.588Z,14.20
2019-04-16T12:46:04.469Z,11.80
2019-04-16T12:47:04.476Z,10.30
2019-04-16T12:48:04.558Z,13.90
2019-04-16T12:49:04.481Z,9.80
2019-04-16T12:50:04.499Z,11.40
2019-04-16T12:51:04.409Z,13.00
2019-04-16T12:52:04.393Z,12.40